Decoded Metar for YABA ( in ) (IATA:) | Meteo·Mobile Aviation Weather
aviador You're here:

YABA Decoded Metar

in
Report Time2018-10-18 00:00:00
UTC Time2018-10-18 01:04:34
Flight Rules vfr VFR
Wind310° at 17 kt
W.Decomp.*RWY 32: 16.7 kt HW 3 kt LCW
RWY 23: 3.0 kt HW 16.7 kt RCW
W.Rank310° ranks 1
Current wind is above 310° avg. (8.1)
Visibility9999 m
Phenomena:N/A
Clouds:Few 016 Hf
Scattered 035 Hf
Expected CloudBase > 3,200 ft AGL from Temp-Dew spread
CeilingNone
Temp16°C
Dew Point08°C (59% RH)
AAT9.4°C
QNH1001 hPa
Raw Report
METAR YABA 180000Z 31017KT 9999 FEW016 SCT035 16/08 Q1001=

Extra information for YABA:More info

Social comments